MDA weather

Ingenio Incauca Airport
Miranda, Cauca Department, Colombia

Public forecast

Using degrees Celsius for public forecast. Weather courtesy of forecast.io.

Closest aviation weather report (METAR) to Ingenio Incauca Airport

Closest report is Alfonso Bonilla Aragon International Airport, 16.7 nm (31.0 km) N. Retrieved 2020/02/18 06:00 UTC (6 minutes ago):

SKCL 180600Z 05006KT 9000 FEW020 22/20 A2986 NOSIG

Closest aviation forecast (TAF) to Ingenio Incauca Airport

Closest forecast is Alfonso Bonilla Aragon International Airport, 16.7 nm (31.0 km) N. Retrieved 2020/02/18 06:30 UTC (0 seconds ago):

TAF SKCL 180430Z 1806/1906 04004KT 9999 FEW020 TEMPO 1821/1824 32015KT TX35/1819Z TN19/1810Z